sensor_id;sensor_type;location;lat;lon;timestamp;P1;durP1;ratioP1;P2;durP2;ratioP2
16579;SDS011;8402;51.466;6.806;2022-08-11T00:02:23;4.07;;;2.47;;
16579;SDS011;8402;51.466;6.806;2022-08-11T00:04:54;3.90;;;2.70;;
16579;SDS011;8402;51.466;6.806;2022-08-11T00:07:24;4.70;;;2.40;;
16579;SDS011;8402;51.466;6.806;2022-08-11T00:09:53;5.15;;;2.70;;
16579;SDS011;8402;51.466;6.806;2022-08-11T00:12:22;5.43;;;2.40;;
16579;SDS011;8402;51.466;6.806;2022-08-11T00:14:55;3.83;;;2.47;;
16579;SDS011;8402;51.466;6.806;2022-08-11T00:17:26;6.30;;;2.60;;
16579;SDS011;8402;51.466;6.806;2022-08-11T00:20:02;3.80;;;2.50;;
16579;SDS011;8402;51.466;6.806;2022-08-11T00:22:42;6.03;;;2.35;;
16579;SDS011;8402;51.466;6.806;2022-08-11T00:25:13;5.68;;;2.58;;
16579;SDS011;8402;51.466;6.806;2022-08-11T00:27:44;5.10;;;2.35;;
16579;SDS011;8402;51.466;6.806;2022-08-11T00:30:15;3.80;;;2.00;;
16579;SDS011;8402;51.466;6.806;2022-08-11T00:32:51;3.47;;;2.38;;
16579;SDS011;8402;51.466;6.806;2022-08-11T00:35:23;4.05;;;2.30;;
16579;SDS011;8402;51.466;6.806;2022-08-11T00:38:23;3.85;;;2.50;;
16579;SDS011;8402;51.466;6.806;2022-08-11T00:40:57;4.82;;;2.80;;
16579;SDS011;8402;51.466;6.806;2022-08-11T00:43:40;5.78;;;2.30;;
16579;SDS011;8402;51.466;6.806;2022-08-11T00:46:25;3.67;;;2.35;;
16579;SDS011;8402;51.466;6.806;2022-08-11T00:49:08;4.10;;;2.65;;
16579;SDS011;8402;51.466;6.806;2022-08-11T00:51:55;3.75;;;2.50;;
16579;SDS011;8402;51.466;6.806;2022-08-11T00:57:44;2.95;;;2.00;;
16579;SDS011;8402;51.466;6.806;2022-08-11T01:00:41;3.10;;;2.25;;
16579;SDS011;8402;51.466;6.806;2022-08-11T01:03:35;4.47;;;2.20;;
16579;SDS011;8402;51.466;6.806;2022-08-11T01:09:33;5.40;;;2.45;;
16579;SDS011;8402;51.466;6.806;2022-08-11T01:12:30;4.97;;;2.40;;
16579;SDS011;8402;51.466;6.806;2022-08-11T01:22:00;3.75;;;2.35;;
16579;SDS011;8402;51.466;6.806;2022-08-11T01:24:50;8.63;;;2.90;;
16579;SDS011;8402;51.466;6.806;2022-08-11T01:27:42;4.97;;;2.53;;
16579;SDS011;8402;51.466;6.806;2022-08-11T01:30:42;4.60;;;2.47;;
16579;SDS011;8402;51.466;6.806;2022-08-11T01:39:36;5.82;;;2.78;;
16579;SDS011;8402;51.466;6.806;2022-08-11T01:45:49;4.38;;;2.35;;
16579;SDS011;8402;51.466;6.806;2022-08-11T01:48:26;4.53;;;2.38;;
16579;SDS011;8402;51.466;6.806;2022-08-11T01:51:22;8.40;;;2.55;;
16579;SDS011;8402;51.466;6.806;2022-08-11T01:54:02;5.72;;;2.47;;
16579;SDS011;8402;51.466;6.806;2022-08-11T01:56:34;2.50;;;2.13;;
16579;SDS011;8402;51.466;6.806;2022-08-11T01:59:10;3.72;;;2.55;;
16579;SDS011;8402;51.466;6.806;2022-08-11T02:01:53;5.82;;;2.60;;
16579;SDS011;8402;51.466;6.806;2022-08-11T02:04:32;7.32;;;2.40;;
16579;SDS011;8402;51.466;6.806;2022-08-11T02:07:09;6.00;;;2.80;;
16579;SDS011;8402;51.466;6.806;2022-08-11T02:09:47;8.20;;;2.75;;
16579;SDS011;8402;51.466;6.806;2022-08-11T02:12:27;5.18;;;2.35;;
16579;SDS011;8402;51.466;6.806;2022-08-11T02:15:19;8.23;;;2.63;;
16579;SDS011;8402;51.466;6.806;2022-08-11T02:17:57;4.38;;;2.70;;
16579;SDS011;8402;51.466;6.806;2022-08-11T02:20:31;3.70;;;2.53;;
16579;SDS011;8402;51.466;6.806;2022-08-11T02:23:26;6.78;;;2.58;;
16579;SDS011;8402;51.466;6.806;2022-08-11T02:26:32;4.75;;;2.28;;
16579;SDS011;8402;51.466;6.806;2022-08-11T02:29:09;4.85;;;2.88;;
16579;SDS011;8402;51.466;6.806;2022-08-11T02:31:49;4.45;;;2.80;;
16579;SDS011;8402;51.466;6.806;2022-08-11T02:34:58;4.28;;;2.70;;
16579;SDS011;8402;51.466;6.806;2022-08-11T02:37:33;4.03;;;3.10;;
16579;SDS011;8402;51.466;6.806;2022-08-11T02:40:15;7.60;;;2.70;;
16579;SDS011;8402;51.466;6.806;2022-08-11T02:42:54;3.90;;;2.80;;
16579;SDS011;8402;51.466;6.806;2022-08-11T02:45:33;6.20;;;2.80;;
16579;SDS011;8402;51.466;6.806;2022-08-11T02:48:09;5.53;;;2.95;;
16579;SDS011;8402;51.466;6.806;2022-08-11T02:51:05;3.40;;;2.47;;
16579;SDS011;8402;51.466;6.806;2022-08-11T02:53:50;6.38;;;2.90;;
16579;SDS011;8402;51.466;6.806;2022-08-11T02:56:37;3.42;;;2.58;;
16579;SDS011;8402;51.466;6.806;2022-08-11T02:59:16;4.68;;;2.70;;
16579;SDS011;8402;51.466;6.806;2022-08-11T03:02:15;5.47;;;2.50;;
16579;SDS011;8402;51.466;6.806;2022-08-11T03:05:03;6.30;;;2.80;;
16579;SDS011;8402;51.466;6.806;2022-08-11T03:07:38;4.70;;;2.78;;
16579;SDS011;8402;51.466;6.806;2022-08-11T03:10:17;5.95;;;3.10;;
16579;SDS011;8402;51.466;6.806;2022-08-11T03:12:49;5.50;;;2.90;;
16579;SDS011;8402;51.466;6.806;2022-08-11T03:15:45;6.35;;;2.90;;
16579;SDS011;8402;51.466;6.806;2022-08-11T03:18:42;5.93;;;2.85;;
16579;SDS011;8402;51.466;6.806;2022-08-11T03:21:19;4.57;;;2.95;;
16579;SDS011;8402;51.466;6.806;2022-08-11T03:24:13;3.53;;;2.60;;
16579;SDS011;8402;51.466;6.806;2022-08-11T03:26:46;6.40;;;3.75;;
16579;SDS011;8402;51.466;6.806;2022-08-11T03:29:29;8.70;;;3.00;;
16579;SDS011;8402;51.466;6.806;2022-08-11T03:32:03;5.00;;;3.00;;
16579;SDS011;8402;51.466;6.806;2022-08-11T03:34:37;6.18;;;3.08;;
16579;SDS011;8402;51.466;6.806;2022-08-11T03:37:17;9.98;;;3.13;;
16579;SDS011;8402;51.466;6.806;2022-08-11T03:40:18;5.55;;;3.05;;
16579;SDS011;8402;51.466;6.806;2022-08-11T03:43:21;9.77;;;3.05;;
16579;SDS011;8402;51.466;6.806;2022-08-11T03:46:11;5.15;;;2.95;;
16579;SDS011;8402;51.466;6.806;2022-08-11T03:48:48;8.10;;;3.20;;
16579;SDS011;8402;51.466;6.806;2022-08-11T03:51:24;4.97;;;3.03;;
16579;SDS011;8402;51.466;6.806;2022-08-11T03:54:21;3.92;;;2.90;;
16579;SDS011;8402;51.466;6.806;2022-08-11T04:00:18;4.25;;;2.97;;
16579;SDS011;8402;51.466;6.806;2022-08-11T04:09:43;4.90;;;3.30;;
16579;SDS011;8402;51.466;6.806;2022-08-11T04:15:49;7.47;;;2.88;;
16579;SDS011;8402;51.466;6.806;2022-08-11T04:18:57;6.95;;;3.20;;
16579;SDS011;8402;51.466;6.806;2022-08-11T04:22:03;11.57;;;3.30;;
16579;SDS011;8402;51.466;6.806;2022-08-11T04:28:04;9.38;;;2.97;;
16579;SDS011;8402;51.466;6.806;2022-08-11T04:31:01;10.07;;;3.65;;
16579;SDS011;8402;51.466;6.806;2022-08-11T04:36:59;7.68;;;3.17;;
16579;SDS011;8402;51.466;6.806;2022-08-11T04:43:35;3.72;;;2.60;;
16579;SDS011;8402;51.466;6.806;2022-08-11T04:46:40;3.92;;;2.83;;
16579;SDS011;8402;51.466;6.806;2022-08-11T04:52:55;4.90;;;3.00;;
16579;SDS011;8402;51.466;6.806;2022-08-11T04:56:02;7.70;;;3.35;;
16579;SDS011;8402;51.466;6.806;2022-08-11T04:59:07;6.63;;;3.22;;
16579;SDS011;8402;51.466;6.806;2022-08-11T05:02:13;5.93;;;2.97;;
16579;SDS011;8402;51.466;6.806;2022-08-11T05:05:08;7.68;;;3.28;;
16579;SDS011;8402;51.466;6.806;2022-08-11T05:11:32;5.75;;;2.95;;
16579;SDS011;8402;51.466;6.806;2022-08-11T05:14:28;6.93;;;3.50;;
16579;SDS011;8402;51.466;6.806;2022-08-11T05:17:21;8.13;;;3.40;;
16579;SDS011;8402;51.466;6.806;2022-08-11T05:20:14;6.35;;;2.65;;
16579;SDS011;8402;51.466;6.806;2022-08-11T05:23:03;7.72;;;3.50;;
16579;SDS011;8402;51.466;6.806;2022-08-11T05:25:51;6.72;;;3.17;;
16579;SDS011;8402;51.466;6.806;2022-08-11T05:29:02;8.38;;;3.50;;
16579;SDS011;8402;51.466;6.806;2022-08-11T05:32:07;7.65;;;3.63;;
16579;SDS011;8402;51.466;6.806;2022-08-11T05:34:57;8.10;;;3.55;;
16579;SDS011;8402;51.466;6.806;2022-08-11T05:37:30;7.70;;;3.50;;
16579;SDS011;8402;51.466;6.806;2022-08-11T05:40:05;9.63;;;3.83;;
16579;SDS011;8402;51.466;6.806;2022-08-11T05:42:54;7.22;;;3.45;;
16579;SDS011;8402;51.466;6.806;2022-08-11T05:45:43;9.95;;;3.72;;
16579;SDS011;8402;51.466;6.806;2022-08-11T05:48:39;7.47;;;3.60;;
16579;SDS011;8402;51.466;6.806;2022-08-11T05:51:32;6.80;;;3.63;;
16579;SDS011;8402;51.466;6.806;2022-08-11T05:54:21;13.48;;;4.35;;
16579;SDS011;8402;51.466;6.806;2022-08-11T05:57:17;7.65;;;3.92;;
16579;SDS011;8402;51.466;6.806;2022-08-11T06:00:07;10.80;;;4.53;;
16579;SDS011;8402;51.466;6.806;2022-08-11T06:02:42;11.85;;;4.25;;
16579;SDS011;8402;51.466;6.806;2022-08-11T06:05:10;10.85;;;3.67;;
16579;SDS011;8402;51.466;6.806;2022-08-11T06:07:39;7.63;;;3.85;;
16579;SDS011;8402;51.466;6.806;2022-08-11T06:10:23;9.18;;;3.92;;
16579;SDS011;8402;51.466;6.806;2022-08-11T06:12:53;11.00;;;3.92;;
16579;SDS011;8402;51.466;6.806;2022-08-11T06:15:22;10.13;;;3.50;;
16579;SDS011;8402;51.466;6.806;2022-08-11T06:17:53;8.82;;;3.53;;
16579;SDS011;8402;51.466;6.806;2022-08-11T06:20:23;8.18;;;3.33;;
16579;SDS011;8402;51.466;6.806;2022-08-11T06:22:56;8.77;;;3.72;;
16579;SDS011;8402;51.466;6.806;2022-08-11T06:25:29;10.45;;;4.20;;
16579;SDS011;8402;51.466;6.806;2022-08-11T06:27:58;7.15;;;3.65;;
16579;SDS011;8402;51.466;6.806;2022-08-11T06:30:34;8.55;;;3.45;;
16579;SDS011;8402;51.466;6.806;2022-08-11T06:33:08;7.68;;;3.83;;
16579;SDS011;8402;51.466;6.806;2022-08-11T06:35:46;4.90;;;3.38;;
16579;SDS011;8402;51.466;6.806;2022-08-11T06:38:27;7.10;;;3.20;;
16579;SDS011;8402;51.466;6.806;2022-08-11T06:41:12;9.52;;;3.20;;
16579;SDS011;8402;51.466;6.806;2022-08-11T06:46:54;7.70;;;3.47;;
16579;SDS011;8402;51.466;6.806;2022-08-11T06:49:38;8.68;;;3.60;;
16579;SDS011;8402;51.466;6.806;2022-08-11T06:52:33;10.65;;;3.38;;
16579;SDS011;8402;51.466;6.806;2022-08-11T06:55:04;7.35;;;3.45;;
16579;SDS011;8402;51.466;6.806;2022-08-11T06:57:54;7.05;;;3.75;;
16579;SDS011;8402;51.466;6.806;2022-08-11T07:00:41;7.40;;;3.17;;
16579;SDS011;8402;51.466;6.806;2022-08-11T07:03:11;11.30;;;3.88;;
16579;SDS011;8402;51.466;6.806;2022-08-11T07:05:46;10.63;;;3.42;;
16579;SDS011;8402;51.466;6.806;2022-08-11T07:08:27;10.32;;;3.72;;
16579;SDS011;8402;51.466;6.806;2022-08-11T07:14:48;9.38;;;3.42;;
16579;SDS011;8402;51.466;6.806;2022-08-11T07:17:48;9.77;;;3.75;;
16579;SDS011;8402;51.466;6.806;2022-08-11T07:20:38;6.88;;;3.38;;
16579;SDS011;8402;51.466;6.806;2022-08-11T07:23:29;4.13;;;3.30;;
16579;SDS011;8402;51.466;6.806;2022-08-11T07:26:18;6.70;;;3.53;;
16579;SDS011;8402;51.466;6.806;2022-08-11T07:29:09;9.10;;;3.50;;
16579;SDS011;8402;51.466;6.806;2022-08-11T07:31:40;6.22;;;3.38;;
16579;SDS011;8402;51.466;6.806;2022-08-11T07:34:16;10.20;;;4.05;;
16579;SDS011;8402;51.466;6.806;2022-08-11T07:36:49;5.88;;;3.13;;
16579;SDS011;8402;51.466;6.806;2022-08-11T07:39:22;9.90;;;3.63;;
16579;SDS011;8402;51.466;6.806;2022-08-11T07:41:53;5.38;;;3.45;;
16579;SDS011;8402;51.466;6.806;2022-08-11T07:44:24;6.03;;;3.55;;
16579;SDS011;8402;51.466;6.806;2022-08-11T07:47:00;9.90;;;3.33;;
16579;SDS011;8402;51.466;6.806;2022-08-11T07:49:47;10.73;;;3.65;;
16579;SDS011;8402;51.466;6.806;2022-08-11T07:52:36;6.72;;;3.70;;
16579;SDS011;8402;51.466;6.806;2022-08-11T07:55:11;8.75;;;3.80;;
16579;SDS011;8402;51.466;6.806;2022-08-11T07:57:43;8.27;;;4.10;;
16579;SDS011;8402;51.466;6.806;2022-08-11T08:00:45;9.07;;;3.58;;
16579;SDS011;8402;51.466;6.806;2022-08-11T08:03:46;7.75;;;3.50;;
16579;SDS011;8402;51.466;6.806;2022-08-11T08:06:32;8.73;;;3.88;;
16579;SDS011;8402;51.466;6.806;2022-08-11T08:09:19;6.40;;;3.75;;
16579;SDS011;8402;51.466;6.806;2022-08-11T08:12:07;8.38;;;3.53;;
16579;SDS011;8402;51.466;6.806;2022-08-11T08:14:54;9.32;;;4.22;;
16579;SDS011;8402;51.466;6.806;2022-08-11T08:17:41;10.73;;;3.45;;
16579;SDS011;8402;51.466;6.806;2022-08-11T08:20:38;4.43;;;3.63;;
16579;SDS011;8402;51.466;6.806;2022-08-11T08:23:10;6.95;;;3.67;;
16579;SDS011;8402;51.466;6.806;2022-08-11T08:25:40;6.65;;;3.55;;
16579;SDS011;8402;51.466;6.806;2022-08-11T08:28:11;9.73;;;3.90;;
16579;SDS011;8402;51.466;6.806;2022-08-11T08:30:43;5.60;;;3.38;;
16579;SDS011;8402;51.466;6.806;2022-08-11T08:33:17;9.63;;;3.97;;
16579;SDS011;8402;51.466;6.806;2022-08-11T08:35:49;6.00;;;3.53;;
16579;SDS011;8402;51.466;6.806;2022-08-11T08:38:38;8.20;;;3.70;;
16579;SDS011;8402;51.466;6.806;2022-08-11T08:41:07;6.03;;;3.70;;
16579;SDS011;8402;51.466;6.806;2022-08-11T08:43:43;8.13;;;3.63;;
16579;SDS011;8402;51.466;6.806;2022-08-11T08:46:15;5.22;;;3.50;;
16579;SDS011;8402;51.466;6.806;2022-08-11T08:48:47;7.10;;;3.90;;
16579;SDS011;8402;51.466;6.806;2022-08-11T08:51:18;7.68;;;3.47;;
16579;SDS011;8402;51.466;6.806;2022-08-11T08:54:22;5.93;;;3.33;;
16579;SDS011;8402;51.466;6.806;2022-08-11T08:56:55;4.97;;;3.30;;
16579;SDS011;8402;51.466;6.806;2022-08-11T08:59:25;7.63;;;3.80;;
16579;SDS011;8402;51.466;6.806;2022-08-11T09:02:13;5.35;;;3.42;;
16579;SDS011;8402;51.466;6.806;2022-08-11T09:04:43;7.45;;;3.70;;
16579;SDS011;8402;51.466;6.806;2022-08-11T09:07:14;5.43;;;3.60;;
16579;SDS011;8402;51.466;6.806;2022-08-11T09:09:44;5.35;;;3.45;;
16579;SDS011;8402;51.466;6.806;2022-08-11T09:12:15;4.75;;;3.50;;
16579;SDS011;8402;51.466;6.806;2022-08-11T09:15:05;7.78;;;3.80;;
16579;SDS011;8402;51.466;6.806;2022-08-11T09:17:38;4.82;;;3.60;;
16579;SDS011;8402;51.466;6.806;2022-08-11T09:20:08;6.60;;;3.50;;
16579;SDS011;8402;51.466;6.806;2022-08-11T09:22:39;4.45;;;3.35;;
16579;SDS011;8402;51.466;6.806;2022-08-11T09:25:48;5.32;;;3.65;;
16579;SDS011;8402;51.466;6.806;2022-08-11T09:28:35;6.28;;;3.50;;
16579;SDS011;8402;51.466;6.806;2022-08-11T09:31:05;5.05;;;3.40;;
16579;SDS011;8402;51.466;6.806;2022-08-11T09:33:33;6.35;;;3.60;;
16579;SDS011;8402;51.466;6.806;2022-08-11T09:36:04;5.70;;;3.40;;
16579;SDS011;8402;51.466;6.806;2022-08-11T09:38:47;8.88;;;3.30;;
16579;SDS011;8402;51.466;6.806;2022-08-11T09:41:34;7.20;;;3.58;;
16579;SDS011;8402;51.466;6.806;2022-08-11T09:44:23;5.40;;;3.53;;
16579;SDS011;8402;51.466;6.806;2022-08-11T09:47:10;7.47;;;3.55;;
16579;SDS011;8402;51.466;6.806;2022-08-11T09:49:40;4.30;;;3.47;;
16579;SDS011;8402;51.466;6.806;2022-08-11T09:52:10;5.35;;;3.53;;
16579;SDS011;8402;51.466;6.806;2022-08-11T09:54:40;6.75;;;3.60;;
16579;SDS011;8402;51.466;6.806;2022-08-11T09:57:13;4.40;;;3.30;;
16579;SDS011;8402;51.466;6.806;2022-08-11T10:00:04;7.07;;;3.40;;
16579;SDS011;8402;51.466;6.806;2022-08-11T10:02:40;6.72;;;3.22;;
16579;SDS011;8402;51.466;6.806;2022-08-11T10:05:10;4.03;;;3.35;;
16579;SDS011;8402;51.466;6.806;2022-08-11T10:08:01;10.15;;;3.58;;
16579;SDS011;8402;51.466;6.806;2022-08-11T10:10:33;4.50;;;3.72;;
16579;SDS011;8402;51.466;6.806;2022-08-11T10:13:03;4.60;;;3.38;;
16579;SDS011;8402;51.466;6.806;2022-08-11T10:15:54;5.80;;;3.47;;
16579;SDS011;8402;51.466;6.806;2022-08-11T10:18:43;6.38;;;3.28;;
16579;SDS011;8402;51.466;6.806;2022-08-11T10:21:22;3.60;;;3.30;;
16579;SDS011;8402;51.466;6.806;2022-08-11T10:23:54;4.10;;;3.15;;
16579;SDS011;8402;51.466;6.806;2022-08-11T10:26:42;6.50;;;3.22;;
16579;SDS011;8402;51.466;6.806;2022-08-11T10:29:26;5.50;;;3.38;;
16579;SDS011;8402;51.466;6.806;2022-08-11T10:32:29;6.38;;;3.28;;
16579;SDS011;8402;51.466;6.806;2022-08-11T10:35:26;5.80;;;3.13;;
16579;SDS011;8402;51.466;6.806;2022-08-11T10:37:56;8.98;;;3.90;;
16579;SDS011;8402;51.466;6.806;2022-08-11T10:40:36;4.45;;;3.08;;
16579;SDS011;8402;51.466;6.806;2022-08-11T10:43:06;9.32;;;3.35;;
16579;SDS011;8402;51.466;6.806;2022-08-11T10:45:40;3.97;;;2.85;;
16579;SDS011;8402;51.466;6.806;2022-08-11T10:48:29;3.10;;;2.80;;
16579;SDS011;8402;51.466;6.806;2022-08-11T10:51:00;4.00;;;3.13;;
16579;SDS011;8402;51.466;6.806;2022-08-11T10:53:40;4.20;;;3.22;;
16579;SDS011;8402;51.466;6.806;2022-08-11T10:56:29;4.25;;;2.90;;
16579;SDS011;8402;51.466;6.806;2022-08-11T10:59:17;8.98;;;3.42;;
16579;SDS011;8402;51.466;6.806;2022-08-11T11:01:45;5.72;;;3.22;;
16579;SDS011;8402;51.466;6.806;2022-08-11T11:04:14;4.45;;;3.10;;
16579;SDS011;8402;51.466;6.806;2022-08-11T11:06:55;7.28;;;3.50;;
16579;SDS011;8402;51.466;6.806;2022-08-11T11:09:30;3.38;;;3.00;;
16579;SDS011;8402;51.466;6.806;2022-08-11T11:12:00;5.38;;;3.40;;
16579;SDS011;8402;51.466;6.806;2022-08-11T11:14:52;4.32;;;3.42;;
16579;SDS011;8402;51.466;6.806;2022-08-11T11:17:44;5.22;;;3.20;;
16579;SDS011;8402;51.466;6.806;2022-08-11T11:20:28;6.25;;;3.30;;
16579;SDS011;8402;51.466;6.806;2022-08-11T11:23:09;6.10;;;3.63;;
16579;SDS011;8402;51.466;6.806;2022-08-11T11:25:49;6.00;;;3.60;;
16579;SDS011;8402;51.466;6.806;2022-08-11T11:28:48;7.47;;;3.60;;
16579;SDS011;8402;51.466;6.806;2022-08-11T11:31:31;6.10;;;3.03;;
16579;SDS011;8402;51.466;6.806;2022-08-11T11:34:12;3.95;;;3.15;;
16579;SDS011;8402;51.466;6.806;2022-08-11T11:36:47;6.88;;;3.38;;
16579;SDS011;8402;51.466;6.806;2022-08-11T11:39:19;4.82;;;3.15;;
16579;SDS011;8402;51.466;6.806;2022-08-11T11:41:50;7.13;;;3.30;;
16579;SDS011;8402;51.466;6.806;2022-08-11T11:44:20;4.15;;;3.75;;
16579;SDS011;8402;51.466;6.806;2022-08-11T11:46:50;4.22;;;3.78;;
16579;SDS011;8402;51.466;6.806;2022-08-11T11:49:20;4.00;;;3.60;;
16579;SDS011;8402;51.466;6.806;2022-08-11T11:51:50;4.57;;;3.50;;
16579;SDS011;8402;51.466;6.806;2022-08-11T11:54:21;3.33;;;3.03;;
16579;SDS011;8402;51.466;6.806;2022-08-11T11:56:52;6.20;;;3.47;;
16579;SDS011;8402;51.466;6.806;2022-08-11T11:59:23;4.78;;;3.58;;
16579;SDS011;8402;51.466;6.806;2022-08-11T12:02:12;6.00;;;3.80;;
16579;SDS011;8402;51.466;6.806;2022-08-11T12:04:43;6.30;;;3.40;;
16579;SDS011;8402;51.466;6.806;2022-08-11T12:07:16;5.43;;;3.38;;
16579;SDS011;8402;51.466;6.806;2022-08-11T12:10:03;7.72;;;3.78;;
16579;SDS011;8402;51.466;6.806;2022-08-11T12:12:34;4.95;;;3.63;;
16579;SDS011;8402;51.466;6.806;2022-08-11T12:15:20;7.88;;;3.60;;
16579;SDS011;8402;51.466;6.806;2022-08-11T12:18:08;7.03;;;5.10;;
16579;SDS011;8402;51.466;6.806;2022-08-11T12:20:37;5.07;;;4.53;;
16579;SDS011;8402;51.466;6.806;2022-08-11T12:23:05;8.43;;;3.90;;
16579;SDS011;8402;51.466;6.806;2022-08-11T12:25:52;5.75;;;3.50;;
16579;SDS011;8402;51.466;6.806;2022-08-11T12:28:53;6.65;;;3.75;;
16579;SDS011;8402;51.466;6.806;2022-08-11T12:31:23;6.85;;;3.38;;
16579;SDS011;8402;51.466;6.806;2022-08-11T12:33:51;4.55;;;3.17;;
16579;SDS011;8402;51.466;6.806;2022-08-11T12:36:21;3.70;;;3.40;;
16579;SDS011;8402;51.466;6.806;2022-08-11T12:38:49;4.00;;;3.60;;
16579;SDS011;8402;51.466;6.806;2022-08-11T12:41:21;5.05;;;3.58;;
16579;SDS011;8402;51.466;6.806;2022-08-11T12:44:07;4.70;;;3.55;;
16579;SDS011;8402;51.466;6.806;2022-08-11T12:47:07;6.95;;;3.40;;
16579;SDS011;8402;51.466;6.806;2022-08-11T12:49:37;4.70;;;3.50;;
16579;SDS011;8402;51.466;6.806;2022-08-11T12:52:29;6.95;;;3.20;;
16579;SDS011;8402;51.466;6.806;2022-08-11T12:55:01;5.22;;;3.50;;
16579;SDS011;8402;51.466;6.806;2022-08-11T12:57:41;8.73;;;3.83;;
16579;SDS011;8402;51.466;6.806;2022-08-11T13:00:30;7.03;;;3.70;;
16579;SDS011;8402;51.466;6.806;2022-08-11T13:03:17;5.32;;;3.45;;
16579;SDS011;8402;51.466;6.806;2022-08-11T13:06:04;5.53;;;3.40;;
16579;SDS011;8402;51.466;6.806;2022-08-11T13:08:34;5.45;;;3.90;;
16579;SDS011;8402;51.466;6.806;2022-08-11T13:11:06;4.43;;;3.83;;
16579;SDS011;8402;51.466;6.806;2022-08-11T13:14:14;4.90;;;3.92;;
16579;SDS011;8402;51.466;6.806;2022-08-11T13:16:43;6.72;;;3.67;;
16579;SDS011;8402;51.466;6.806;2022-08-11T13:19:30;6.80;;;3.80;;
16579;SDS011;8402;51.466;6.806;2022-08-11T13:21:59;5.88;;;3.60;;
16579;SDS011;8402;51.466;6.806;2022-08-11T13:24:32;6.82;;;3.70;;
16579;SDS011;8402;51.466;6.806;2022-08-11T13:27:02;11.30;;;3.38;;
16579;SDS011;8402;51.466;6.806;2022-08-11T13:29:32;5.18;;;3.75;;
16579;SDS011;8402;51.466;6.806;2022-08-11T13:32:02;4.68;;;3.70;;
16579;SDS011;8402;51.466;6.806;2022-08-11T13:34:30;6.82;;;3.97;;
16579;SDS011;8402;51.466;6.806;2022-08-11T13:36:59;6.75;;;3.55;;
16579;SDS011;8402;51.466;6.806;2022-08-11T13:39:30;5.30;;;3.47;;
16579;SDS011;8402;51.466;6.806;2022-08-11T13:42:00;5.07;;;3.58;;
16579;SDS011;8402;51.466;6.806;2022-08-11T13:44:29;5.50;;;3.42;;
16579;SDS011;8402;51.466;6.806;2022-08-11T13:47:01;5.68;;;3.60;;
16579;SDS011;8402;51.466;6.806;2022-08-11T13:49:31;6.05;;;3.95;;
16579;SDS011;8402;51.466;6.806;2022-08-11T13:52:05;4.65;;;3.72;;
16579;SDS011;8402;51.466;6.806;2022-08-11T13:54:38;5.90;;;3.60;;
16579;SDS011;8402;51.466;6.806;2022-08-11T13:57:08;6.28;;;3.70;;
16579;SDS011;8402;51.466;6.806;2022-08-11T14:00:02;5.20;;;3.53;;
16579;SDS011;8402;51.466;6.806;2022-08-11T14:02:53;6.60;;;3.40;;
16579;SDS011;8402;51.466;6.806;2022-08-11T14:05:24;6.82;;;3.92;;
16579;SDS011;8402;51.466;6.806;2022-08-11T14:07:56;5.85;;;3.53;;
16579;SDS011;8402;51.466;6.806;2022-08-11T14:10:28;3.95;;;3.40;;
16579;SDS011;8402;51.466;6.806;2022-08-11T14:12:59;5.43;;;3.75;;
16579;SDS011;8402;51.466;6.806;2022-08-11T14:15:48;5.22;;;3.60;;
16579;SDS011;8402;51.466;6.806;2022-08-11T14:18:18;4.85;;;3.58;;
16579;SDS011;8402;51.466;6.806;2022-08-11T14:20:49;6.90;;;3.78;;
16579;SDS011;8402;51.466;6.806;2022-08-11T14:23:39;4.78;;;3.60;;
16579;SDS011;8402;51.466;6.806;2022-08-11T14:26:09;8.52;;;3.67;;
16579;SDS011;8402;51.466;6.806;2022-08-11T14:28:53;4.25;;;3.45;;
16579;SDS011;8402;51.466;6.806;2022-08-11T14:31:29;5.28;;;3.70;;
16579;SDS011;8402;51.466;6.806;2022-08-11T14:34:00;4.88;;;3.47;;
16579;SDS011;8402;51.466;6.806;2022-08-11T14:36:32;3.72;;;3.42;;
16579;SDS011;8402;51.466;6.806;2022-08-11T14:39:02;5.45;;;3.60;;
16579;SDS011;8402;51.466;6.806;2022-08-11T14:41:33;6.82;;;3.70;;
16579;SDS011;8402;51.466;6.806;2022-08-11T14:44:38;3.70;;;3.30;;
16579;SDS011;8402;51.466;6.806;2022-08-11T14:47:28;8.95;;;3.95;;
16579;SDS011;8402;51.466;6.806;2022-08-11T14:50:00;6.85;;;3.80;;
16579;SDS011;8402;51.466;6.806;2022-08-11T14:52:38;4.68;;;3.60;;
16579;SDS011;8402;51.466;6.806;2022-08-11T14:55:10;7.22;;;4.15;;
16579;SDS011;8402;51.466;6.806;2022-08-11T14:57:57;5.63;;;3.80;;
16579;SDS011;8402;51.466;6.806;2022-08-11T15:00:27;5.70;;;3.92;;
16579;SDS011;8402;51.466;6.806;2022-08-11T15:02:56;5.75;;;3.50;;
16579;SDS011;8402;51.466;6.806;2022-08-11T15:05:47;5.80;;;3.70;;
16579;SDS011;8402;51.466;6.806;2022-08-11T15:08:23;5.32;;;3.20;;
16579;SDS011;8402;51.466;6.806;2022-08-11T15:11:07;3.80;;;3.30;;
16579;SDS011;8402;51.466;6.806;2022-08-11T15:13:58;6.43;;;3.63;;
16579;SDS011;8402;51.466;6.806;2022-08-11T15:16:27;7.05;;;3.75;;
16579;SDS011;8402;51.466;6.806;2022-08-11T15:19:15;11.30;;;4.00;;
16579;SDS011;8402;51.466;6.806;2022-08-11T15:21:46;7.70;;;3.55;;
16579;SDS011;8402;51.466;6.806;2022-08-11T15:24:32;6.15;;;3.25;;
16579;SDS011;8402;51.466;6.806;2022-08-11T15:27:02;6.20;;;3.30;;
16579;SDS011;8402;51.466;6.806;2022-08-11T15:29:53;5.80;;;3.67;;
16579;SDS011;8402;51.466;6.806;2022-08-11T15:33:00;9.25;;;3.45;;
16579;SDS011;8402;51.466;6.806;2022-08-11T15:35:51;6.25;;;3.22;;
16579;SDS011;8402;51.466;6.806;2022-08-11T15:38:38;6.50;;;3.30;;
16579;SDS011;8402;51.466;6.806;2022-08-11T15:41:11;4.88;;;3.42;;
16579;SDS011;8402;51.466;6.806;2022-08-11T15:44:09;10.52;;;3.55;;
16579;SDS011;8402;51.466;6.806;2022-08-11T15:47:28;19.42;;;4.72;;
16579;SDS011;8402;51.466;6.806;2022-08-11T15:50:04;13.57;;;4.40;;
16579;SDS011;8402;51.466;6.806;2022-08-11T15:52:42;5.60;;;3.33;;
16579;SDS011;8402;51.466;6.806;2022-08-11T15:55:16;9.77;;;3.80;;
16579;SDS011;8402;51.466;6.806;2022-08-11T15:57:46;5.90;;;3.58;;
16579;SDS011;8402;51.466;6.806;2022-08-11T16:00:34;9.63;;;3.58;;
16579;SDS011;8402;51.466;6.806;2022-08-11T16:03:29;5.97;;;3.17;;
16579;SDS011;8402;51.466;6.806;2022-08-11T16:06:34;16.13;;;3.75;;
16579;SDS011;8402;51.466;6.806;2022-08-11T16:09:13;5.47;;;3.30;;
16579;SDS011;8402;51.466;6.806;2022-08-11T16:11:44;6.03;;;3.28;;
16579;SDS011;8402;51.466;6.806;2022-08-11T16:14:15;8.18;;;3.55;;
16579;SDS011;8402;51.466;6.806;2022-08-11T16:17:01;12.65;;;3.75;;
16579;SDS011;8402;51.466;6.806;2022-08-11T16:19:30;5.75;;;3.30;;
16579;SDS011;8402;51.466;6.806;2022-08-11T16:22:02;6.93;;;3.58;;
16579;SDS011;8402;51.466;6.806;2022-08-11T16:24:37;5.25;;;3.20;;
16579;SDS011;8402;51.466;6.806;2022-08-11T16:27:29;8.05;;;3.60;;
16579;SDS011;8402;51.466;6.806;2022-08-11T16:30:00;7.10;;;3.55;;
16579;SDS011;8402;51.466;6.806;2022-08-11T16:32:30;10.82;;;3.70;;
16579;SDS011;8402;51.466;6.806;2022-08-11T16:35:00;7.07;;;3.53;;
16579;SDS011;8402;51.466;6.806;2022-08-11T16:37:49;10.15;;;3.72;;
16579;SDS011;8402;51.466;6.806;2022-08-11T16:40:38;5.13;;;3.58;;
16579;SDS011;8402;51.466;6.806;2022-08-11T16:43:08;7.97;;;3.60;;
16579;SDS011;8402;51.466;6.806;2022-08-11T16:45:58;13.18;;;3.88;;
16579;SDS011;8402;51.466;6.806;2022-08-11T16:48:59;6.07;;;3.53;;
16579;SDS011;8402;51.466;6.806;2022-08-11T16:51:29;11.70;;;3.60;;
16579;SDS011;8402;51.466;6.806;2022-08-11T16:53:58;7.93;;;3.45;;
16579;SDS011;8402;51.466;6.806;2022-08-11T16:56:35;13.68;;;4.05;;
16579;SDS011;8402;51.466;6.806;2022-08-11T16:59:06;8.80;;;3.80;;
16579;SDS011;8402;51.466;6.806;2022-08-11T17:01:42;15.77;;;4.53;;
16579;SDS011;8402;51.466;6.806;2022-08-11T17:04:20;9.40;;;3.70;;
16579;SDS011;8402;51.466;6.806;2022-08-11T17:07:12;12.68;;;3.80;;
16579;SDS011;8402;51.466;6.806;2022-08-11T17:10:10;8.75;;;3.80;;
16579;SDS011;8402;51.466;6.806;2022-08-11T17:13:20;3.70;;;3.40;;
16579;SDS011;8402;51.466;6.806;2022-08-11T17:15:53;5.45;;;3.80;;
16579;SDS011;8402;51.466;6.806;2022-08-11T17:18:35;8.13;;;3.72;;
16579;SDS011;8402;51.466;6.806;2022-08-11T17:21:10;4.35;;;3.50;;
16579;SDS011;8402;51.466;6.806;2022-08-11T17:23:44;8.20;;;3.70;;
16579;SDS011;8402;51.466;6.806;2022-08-11T17:26:16;7.78;;;4.15;;